Latest Weather Observations for Tidbinbilla

IDN60901

Issued at 8:01 pm EST Saturday 25 June 2022 (issued every 10 minutes, with the page automatically refreshed every 10 minutes)

About weather observations | Map of Canberra area stations | Latest observations for Canberra area | Other Formats
Station Details ID: 250069 Name: TIDBINBILLA (PCS) Lat: -35.46 Lon: 148.94 Height: 883.0 m

Portable automatic weather stations (PAWS) are operated by other organisations, such as Fire and Emergency Services, and are included here by agreement. Portable stations may be deployed to a location for a short period and their location may be subject to change without notice. Wind observations from these stations are provided from heights of either three (3) or ten (10) metres above ground level (AGL).

Data from the previous 72 hours. | See also: Recent months for locations in Aust Capital Territory
Date/Time
EST
Temp
°C
App
Temp
°C
Dew
Point
°C
Rel
Hum
%
Delta-T
°C
Wind Press
QNH
hPa
Press
MSL
hPa
Rain since
9am
mm
Dir  Spd
km/h
Gust
km/h
Spd
kts
Gust
kts
25/07:40pm 7.7 0.6 -0.9 54 3.5 SSW 26 35 14 19 1023.6 - 0.0
25/07:30pm 7.6 1.0 -0.3 57 3.3 SSW 24 30 13 16 1023.5 - 0.0
25/07:20pm 7.6 0.6 -0.7 55 3.4 SSW 26 35 14 19 1023.6 - 0.0
25/07:10pm 7.5 0.1 -0.7 56 3.3 SW 28 33 15 18 1023.5 - 0.0
25/07:00pm 7.2 1.0 -0.1 60 3.0 SW 22 30 12 16 1023.5 - 0.0
25/06:30pm 7.2 1.6 -0.3 59 3.1 SW 19 26 10 14 1023.6 - 0.0
25/06:10pm 7.3 1.6 -0.4 58 3.2 SW 19 30 10 16 1023.4 - 0.0
25/05:40pm 7.3 1.7 -0.1 59 3.1 SSW 19 22 10 12 1022.9 - 0.0
25/05:30pm 7.6 1.9 0.4 60 3.0 SSW 20 26 11 14 1022.7 - 0.0
25/05:20pm 7.7 2.1 0.1 58 3.2 SSW 19 24 10 13 1022.7 - 0.0
25/05:10pm 7.7 2.4 -0.3 57 3.3 SSW 17 24 9 13 1022.6 - 0.0
25/05:00pm 7.7 2.2 0.3 59 3.1 SW 19 26 10 14 1022.5 - 0.0
25/04:50pm 7.8 1.3 0.3 59 3.1 SW 24 28 13 15 1022.3 - 0.0
25/04:40pm 7.9 2.1 -0.1 57 3.3 SW 20 30 11 16 1022.1 - 0.0
25/04:30pm 8.4 1.5 0.1 56 3.5 SW 26 32 14 17 1022.1 - 0.0
25/04:20pm 9.3 2.1 0.4 54 3.8 SW 28 37 15 20 1022.0 - 0.0
25/04:10pm 9.6 3.2 1.1 55 3.7 SW 24 28 13 15 1022.0 - 0.0
25/04:00pm 9.6 2.8 0.5 53 3.9 SW 26 30 14 16 1021.9 - 0.0
25/03:50pm 9.6 2.4 0.6 53 3.9 SSW 28 43 15 23 1021.9 - 0.0
25/03:40pm 9.8 3.0 0.7 53 3.9 SSW 26 35 14 19 1021.7 - 0.0
25/03:30pm 10.0 2.8 0.7 52 4.0 SSW 28 35 15 19 1021.7 - 0.0
25/03:10pm 10.4 4.4 1.3 53 4.0 SW 22 33 12 18 1021.7 - 0.0
25/03:00pm 10.8 6.1 0.8 50 4.4 WSW 15 28 8 15 1021.5 - 0.0
25/02:50pm 10.8 6.5 0.9 50 4.3 WSW 13 19 7 10 1021.6 - 0.0
25/02:40pm 10.8 6.5 1.0 51 4.3 W 13 22 7 12 1021.6 - 0.0
25/02:30pm 11.1 6.8 1.3 51 4.3 SW 13 19 7 10 1021.7 - 0.0
25/02:20pm 11.3 7.5 1.9 52 4.2 SW 11 15 6 8 1021.5 - 0.0
25/02:10pm 11.4 7.2 1.8 51 4.3 SW 13 19 7 10 1021.4 - 0.0
25/02:00pm 11.5 6.9 1.7 51 4.4 SW 15 19 8 10 1021.5 - 0.0
25/01:40pm 11.6 7.4 1.6 50 4.5 WSW 13 20 7 11 1021.4 - 0.0
25/01:30pm 11.4 6.0 1.2 49 4.5 SW 19 30 10 16 1021.4 - 0.0
25/01:10pm 11.7 7.0 1.2 48 4.7 SW 15 24 8 13 1021.4 - 0.0
25/01:00pm 11.8 7.5 0.9 47 4.8 WSW 13 19 7 10 1021.4 - 0.0
25/12:50pm 12.1 7.8 1.0 46 4.9 WSW 13 19 7 10 1021.6 - 0.0
25/12:30pm 12.3 9.2 1.1 46 5.0 WSW 7 9 4 5 1021.6 - 0.0
25/12:00pm 11.4 6.7 0.8 48 4.6 SW 15 26 8 14 1021.7 - 0.0
25/11:40am 11.3 6.2 1.0 49 4.5 WSW 17 24 9 13 1021.8 - 0.0
25/11:30am 11.1 5.3 0.2 47 4.7 SW 20 28 11 15 1022.0 - 0.0
25/11:20am 10.9 4.3 -0.4 45 4.8 SW 24 37 13 20 1021.8 - 0.0
25/11:10am 10.8 5.1 0.5 49 4.5 SW 20 28 11 15 1022.0 - 0.0
25/11:00am 10.6 3.4 0.7 50 4.3 SW 28 39 15 21 1022.1 - 0.0
25/10:50am 10.6 4.5 0.6 50 4.3 SW 22 32 12 17 1022.0 - 0.0
25/10:40am 10.4 4.3 0.3 49 4.3 SSW 22 28 12 15 1022.1 - 0.0
25/10:30am 10.4 4.7 0.8 51 4.2 SW 20 28 11 15 1022.1 - 0.0
25/10:20am 10.0 3.1 0.1 50 4.2 SSW 26 32 14 17 1022.2 - 0.0
25/10:10am 9.9 3.1 0.5 52 4.0 SSW 26 30 14 16 1022.1 - 0.0
25/10:00am 9.7 2.4 0.1 51 4.1 SSW 28 37 15 20 1022.1 - 0.0
25/09:30am 9.2 1.0 0.6 55 3.7 SSW 33 39 18 21 1021.5 - 0.0
25/09:20am 9.1 1.9 0.9 56 3.5 SSW 28 33 15 18 1021.5 - 0.0
25/09:10am 9.1 2.3 1.0 57 3.5 SW 26 30 14 16 1021.4 - 0.0
25/09:00am 9.0 2.6 0.7 56 3.5 SSW 24 28 13 15 1021.5 - 0.0
25/08:40am 8.9 3.4 0.8 57 3.5 SW 19 22 10 12 1021.5 - 0.0
25/08:30am 8.7 3.5 0.4 56 3.5 SSW 17 22 9 12 1021.2 - 0.0
25/08:20am 8.6 3.4 0.1 55 3.6 S 17 22 9 12 1021.2 - 0.0
25/08:10am 8.4 2.8 0.2 56 3.4 S 19 26 10 14 1021.1 - 0.0
25/08:00am 8.3 2.2 0.3 57 3.4 SSW 22 28 12 15 1021.0 - 0.0
25/07:50am 8.2 1.6 -0.1 56 3.5 SSW 24 32 13 17 1020.8 - 0.0
25/07:40am 8.0 2.2 0.2 58 3.3 SSW 20 30 11 16 1020.8 - 0.0
25/07:30am 7.9 1.0 -0.1 57 3.3 SSW 26 33 14 18 1020.6 - 0.0
25/07:20am 7.7 1.2 0.1 58 3.2 SW 24 33 13 18 1020.6 - 0.0
25/07:10am 7.8 0.9 0.1 58 3.2 SSW 26 32 14 17 1020.7 - 0.0
25/07:00am 7.8 0.9 0.1 58 3.2 SSW 26 37 14 20 1020.6 - 0.0
25/06:50am 7.7 1.5 0.0 58 3.2 SW 22 28 12 15 1020.5 - 0.0
25/06:40am 7.6 1.4 0.0 58 3.2 SW 22 30 12 16 1020.5 - 0.0
25/06:20am 7.3 0.8 0.3 61 2.9 SSW 24 32 13 17 1020.3 - 0.0
25/06:10am 7.3 0.4 0.3 61 2.9 SSW 26 41 14 22 1020.1 - 0.0
25/06:00am 7.3 0.5 0.6 62 2.8 SSW 26 30 14 16 1020.1 - 0.0
25/05:50am 7.3 0.5 0.6 62 2.8 SSW 26 33 14 18 1019.9 - 0.0
25/05:20am 7.4 1.4 1.3 65 2.6 SW 22 30 12 16 1019.8 - 0.0
25/05:10am 7.5 1.6 1.6 66 2.5 SW 22 26 12 14 1019.6 - 0.0
25/05:00am 7.5 1.9 1.4 65 2.6 SSW 20 28 11 15 1019.4 - 0.0
25/04:30am 7.6 2.1 2.0 67 2.4 SSW 20 28 11 15 1019.4 - 0.0
25/04:20am 7.5 2.6 2.1 68 2.4 SSW 17 24 9 13 1019.4 - 0.0
25/04:10am 7.7 2.9 2.5 69 2.3 SW 17 20 9 11 1019.3 - 0.0
25/04:00am 7.8 2.3 2.1 67 2.5 SW 20 28 11 15 1019.4 - 0.0
25/03:50am 7.7 2.3 2.4 69 2.3 SW 20 30 11 16 1019.4 - 0.0
25/03:40am 7.8 2.0 2.4 68 2.4 SW 22 28 12 15 1019.5 - 0.0
25/03:30am 7.9 2.5 2.5 68 2.4 SSW 20 22 11 12 1019.5 - 0.0
25/03:20am 7.9 3.1 2.5 68 2.4 SW 17 20 9 11 1019.6 - 0.0
25/03:10am 8.1 3.3 2.8 69 2.4 SSW 17 19 9 10 1019.8 - 0.0
25/03:00am 8.1 4.1 2.8 69 2.4 SSW 13 17 7 9 1019.9 - 0.0
25/02:50am 8.2 5.4 3.3 71 2.2 S 7 9 4 5 1019.9 - 0.0
25/02:40am 8.2 5.4 3.3 71 2.2 SW 7 13 4 7 1019.9 - 0.0
25/02:30am 8.5 5.8 3.8 72 2.1 SW 7 17 4 9 1019.9 - 0.0
25/02:20am 8.5 5.8 3.9 73 2.1 SW 7 11 4 6 1020.0 - 0.0
25/02:10am 8.6 5.6 4.2 74 2.0 SW 9 15 5 8 1019.9 - 0.0
25/01:40am 8.2 6.1 5.7 84 1.2 E 6 7 3 4 1019.9 - 0.0
25/01:30am 8.2 5.9 5.5 83 1.3 NE 7 11 4 6 1019.8 - 0.0
25/01:20am 8.2 6.4 5.4 82 1.3 ESE 4 6 2 3 1019.8 - 0.0
25/01:10am 8.2 6.1 5.8 85 1.1 ENE 6 11 3 6 1019.8 - 0.0
25/01:00am 8.3 6.0 5.9 85 1.1 NNE 7 11 4 6 1019.7 - 0.0
25/12:50am 8.4 5.7 5.7 83 1.3 NE 9 11 5 6 1019.7 - 0.0
25/12:30am 8.1 5.5 6.1 87 1.0 ENE 9 13 5 7 1019.8 - 0.0
25/12:20am 8.0 5.8 6.2 88 0.9 ENE 7 13 4 7 1019.9 - 0.0
25/12:10am 8.1 5.6 6.4 89 0.8 NE 9 11 5 6 1019.9 - 0.0
25/12:00am 8.0 5.5 6.4 90 0.8 ENE 9 13 5 7 1020.0 - 0.0
 
Date/Time
EST
Temp
°C
App
Temp
°C
Dew
Point
°C
Rel
Hum
%
Delta-T
°C
Wind Press
QNH
hPa
Press
MSL
hPa
Rain since
9am
mm
Dir  Spd
km/h
Gust
km/h
Spd
kts
Gust
kts
24/11:50pm 8.0 5.1 6.3 89 0.8 ENE 11 13 6 7 1020.1 - 0.0
24/11:40pm 8.1 5.5 6.2 88 0.9 ENE 9 11 5 6 1020.1 - 0.0
24/11:20pm 8.1 5.6 6.6 90 0.7 ENE 9 15 5 8 1020.1 - 0.0
24/11:10pm 8.0 5.1 6.3 89 0.8 NE 11 13 6 7 1020.0 - 0.0
24/10:40pm 8.0 5.8 6.1 88 0.9 ENE 7 11 4 6 1019.8 - 0.0
24/10:20pm 8.2 6.6 6.2 87 1.0 NE 4 9 2 5 1019.7 - 0.0
24/10:10pm 8.3 6.1 6.1 86 1.1 NE 7 9 4 5 1019.8 - 0.0
24/10:00pm 8.5 6.5 6.1 85 1.2 NNE 6 7 3 4 1019.8 - 0.0
24/09:50pm 8.8 7.1 5.7 81 1.5 W 4 11 2 6 1019.7 - 0.0
24/09:40pm 8.7 7.0 5.7 81 1.4 N 4 7 2 4 1019.8 - 0.0
24/09:20pm 9.0 6.3 5.6 79 1.6 WSW 9 15 5 8 1019.8 - 0.0
24/09:10pm 9.2 6.9 5.9 80 1.6 WSW 7 11 4 6 1019.8 - 0.0
24/09:00pm 9.3 6.5 5.3 76 1.9 WSW 9 17 5 9 1019.6 - 0.0
24/08:50pm 9.3 5.8 5.4 76 1.9 SW 13 17 7 9 1019.5 - 0.0
24/08:20pm 9.4 5.1 5.2 75 2.0 WSW 17 20 9 11 1019.5 - 0.0
24/08:10pm 9.3 5.0 5.3 76 1.9 WSW 17 26 9 14 1019.5 - 0.0
24/08:00pm 9.1 6.0 5.5 78 1.7 SW 11 22 6 12 1019.2 - 0.0
24/07:40pm 9.3 7.2 5.6 78 1.8 W 6 9 3 5 1019.3 - 0.0
24/07:20pm 9.5 7.1 5.1 74 2.1 SW 7 11 4 6 1019.1 - 0.0
24/07:10pm 9.6 7.8 5.3 74 2.1 W 4 9 2 5 1019.0 - 0.0
24/07:00pm 9.7 6.5 5.2 73 2.1 WNW 11 17 6 9 1019.0 - 0.0
24/06:50pm 9.7 6.9 5.0 72 2.2 WSW 9 15 5 8 1018.8 - 0.0
24/06:40pm 9.8 7.4 5.2 73 2.2 W 7 11 4 6 1018.8 - 0.0
24/06:30pm 9.8 6.2 4.9 71 2.3 SW 13 24 7 13 1018.6 - 0.0
24/06:20pm 9.7 6.9 5.0 72 2.2 W 9 17 5 9 1018.6 - 0.0
24/06:10pm 9.7 5.3 4.8 71 2.3 SW 17 24 9 13 1018.1 - 0.0
24/06:00pm 9.7 6.6 5.5 75 2.0 WSW 11 17 6 9 1018.1 - 0.0
24/05:50pm 9.8 5.1 5.3 73 2.2 WSW 19 32 10 17 1018.2 - 0.0
24/05:40pm 9.6 6.8 5.2 74 2.1 SW 9 20 5 11 1017.9 - 0.0
24/05:30pm 9.6 6.9 5.6 76 1.9 WSW 9 15 5 8 1017.8 - 0.0
24/05:10pm 9.7 4.1 5.2 73 2.1 WSW 24 37 13 20 1017.3 - 0.0
24/05:00pm 9.6 4.3 5.1 73 2.1 WSW 22 30 12 16 1017.1 - 0.0
24/04:40pm 9.6 2.8 4.9 72 2.2 SW 30 43 16 23 1016.9 - 0.0
24/04:30pm 9.7 3.3 5.1 73 2.2 SW 28 37 15 20 1016.4 - 0.0
24/04:20pm 9.7 2.3 5.0 72 2.2 SW 33 44 18 24 1016.5 - 0.0
24/04:10pm 9.8 3.4 5.0 72 2.3 WSW 28 35 15 19 1016.4 - 0.0
24/04:00pm 9.8 2.5 4.6 70 2.4 SW 32 41 17 22 1016.4 - 0.0
24/03:50pm 10.0 2.8 4.8 70 2.5 WSW 32 39 17 21 1016.4 - 0.0
24/03:40pm 10.3 3.0 4.7 68 2.7 WSW 32 41 17 22 1016.3 - 0.0
24/03:20pm 10.4 3.9 4.8 68 2.7 WSW 28 35 15 19 1016.4 - 0.0
24/03:10pm 10.6 4.9 4.9 68 2.7 WSW 24 39 13 21 1016.5 - 0.0
24/02:50pm 11.1 5.4 5.0 66 2.9 WSW 24 35 13 19 1016.5 - 0.0
24/02:40pm 11.0 5.3 4.7 65 3.0 WSW 24 32 13 17 1016.4 - 0.0
24/02:30pm 10.9 4.1 4.9 66 2.9 WSW 30 39 16 21 1016.4 - 0.0
24/02:20pm 10.7 3.3 4.8 67 2.8 WSW 33 41 18 22 1016.2 - 0.0
24/02:10pm 11.1 5.0 4.7 64 3.1 WSW 26 37 14 20 1016.1 - 0.0
24/02:00pm 11.1 5.0 4.7 64 3.1 WSW 26 39 14 21 1016.3 - 0.0
24/01:50pm 11.1 4.3 4.9 65 3.0 WSW 30 39 16 21 1016.5 - 0.0
24/01:30pm 10.8 3.3 4.4 64 3.0 WSW 33 48 18 26 1016.6 - 0.0
24/01:20pm 10.9 3.0 4.6 65 3.0 WSW 35 46 19 25 1016.5 - 0.0
24/01:10pm 11.3 5.2 4.6 63 3.2 WSW 26 33 14 18 1016.4 - 0.0
24/12:50pm 10.9 3.6 4.4 64 3.1 WSW 32 44 17 24 1016.8 - 0.0
24/12:40pm 10.8 3.3 4.2 63 3.1 WSW 33 44 18 24 1016.7 - 0.0
24/12:20pm 10.6 3.7 4.6 66 2.8 WSW 30 37 16 20 1017.2 - 0.0
24/12:10pm 10.2 4.0 4.5 68 2.7 WSW 26 43 14 23 1017.5 - 0.0
24/12:00pm 9.9 3.8 4.6 69 2.5 WSW 26 37 14 20 1017.6 - 0.0
24/11:50am 9.9 4.6 5.0 71 2.3 WSW 22 33 12 18 1017.8 - 0.0
24/11:40am 9.9 3.4 4.8 70 2.4 WSW 28 37 15 20 1017.8 - 0.0
24/11:30am 9.8 3.7 4.9 71 2.3 WSW 26 33 14 18 1018.1 - 0.0
24/11:20am 10.0 3.9 4.9 70 2.4 WSW 26 39 14 21 1018.2 - 0.0
24/11:10am 10.1 4.0 4.8 69 2.5 WSW 26 37 14 20 1018.1 - 0.0
24/10:50am 10.1 3.9 4.3 67 2.7 WSW 26 33 14 18 1018.2 - 0.0
24/10:30am 10.3 4.0 3.8 64 3.0 WSW 26 30 14 16 1018.3 - 0.0
24/10:20am 10.1 3.0 3.7 64 3.0 WSW 30 39 16 21 1018.2 - 0.0
24/10:10am 10.0 3.3 3.8 65 2.9 WSW 28 35 15 19 1018.3 - 0.0
24/10:00am 9.6 4.5 4.0 68 2.6 SW 20 32 11 17 1018.7 - 0.0
24/09:50am 9.5 3.6 3.9 68 2.6 WSW 24 32 13 17 1018.6 - 0.0
24/09:20am 9.4 2.3 3.8 68 2.6 WSW 30 41 16 22 1018.7 - 0.0
24/09:10am 9.4 2.3 3.7 67 2.6 WSW 30 41 16 22 1018.7 - 0.0
24/09:00am 9.2 3.2 3.6 68 2.6 WSW 24 37 13 20 1018.8 - 0.0
24/08:50am 9.2 3.3 3.8 69 2.5 WSW 24 30 13 16 1018.7 - 0.0
24/08:40am 9.2 2.5 3.7 68 2.5 WSW 28 46 15 25 1018.8 - 0.0
24/08:30am 9.2 1.7 3.6 68 2.6 WSW 32 37 17 20 1018.7 - 0.0
24/08:20am 9.2 2.1 3.4 67 2.6 WSW 30 35 16 19 1018.5 - 0.0
24/08:00am 8.9 3.0 3.9 71 2.3 WSW 24 39 13 21 1018.6 - 0.0
24/07:40am 8.8 2.5 3.6 70 2.4 WSW 26 37 14 20 1018.5 - 0.0
24/07:30am 8.8 2.1 3.8 71 2.3 WSW 28 35 15 19 1018.6 - 0.0
24/07:20am 8.7 2.0 3.9 72 2.2 WSW 28 39 15 21 1018.5 - 0.0
24/07:10am 8.7 3.2 3.8 71 2.2 WSW 22 33 12 18 1018.7 - 0.0
24/06:50am 8.6 3.0 3.7 71 2.2 WSW 22 30 12 16 1018.7 - 0.0
24/06:40am 8.6 2.7 3.8 72 2.2 WSW 24 32 13 17 1018.8 - 0.0
24/06:30am 8.5 3.0 3.9 73 2.1 WSW 22 35 12 19 1018.8 - 0.0
24/06:20am 8.5 3.6 4.1 74 2.0 WSW 19 35 10 19 1018.6 - 0.0
24/06:10am 8.5 3.0 4.0 73 2.1 WSW 22 30 12 16 1018.6 - 0.0
24/06:00am 8.6 2.8 4.2 74 2.0 WSW 24 35 13 19 1018.7 - 0.0
24/05:50am 8.6 3.1 3.9 72 2.2 WSW 22 33 12 18 1019.0 - 0.0
24/05:00am 8.3 3.9 4.6 77 1.7 WSW 17 30 9 16 1019.4 - 0.0
24/04:50am 8.2 3.2 4.5 77 1.7 WSW 20 32 11 17 1019.5 - 0.0
24/04:40am 7.8 4.5 4.8 81 1.4 WSW 11 15 6 8 1019.6 - 0.0
24/03:30am 8.3 5.3 4.0 74 2.0 W 9 15 5 8 1020.0 - 0.0
24/03:10am 8.1 4.6 3.7 74 2.0 WSW 11 22 6 12 1020.4 - 0.0
24/03:00am 8.0 5.3 3.9 75 1.9 W 7 13 4 7 1020.4 - 0.0
24/02:40am 8.1 6.1 4.4 77 1.7 NNW 4 7 2 4 1020.7 - 0.0
24/02:30am 8.2 5.8 4.3 76 1.8 WNW 6 11 3 6 1020.8 - 0.0
24/02:20am 8.2 6.5 4.2 76 1.8 WNW 2 6 1 3 1020.8 - 0.0
24/02:10am 8.4 6.0 4.3 75 1.9 E 6 9 3 5 1020.7 - 0.0
24/02:00am 8.3 6.3 4.5 77 1.8 ESE 4 6 2 3 1020.9 - 0.0
24/01:50am 8.5 5.2 4.3 75 1.9 SW 11 19 6 10 1020.9 - 0.0
24/01:40am 8.5 4.4 4.3 75 1.9 S 15 19 8 10 1020.8 - 0.0
24/01:30am 8.5 5.1 4.2 74 2.0 S 11 17 6 9 1021.1 - 0.0
24/01:20am 8.6 5.7 4.5 75 1.9 SSW 9 17 5 9 1021.1 - 0.0
24/01:10am 8.8 5.5 4.4 74 2.0 SW 11 17 6 9 1021.0 - 0.0
24/01:00am 8.7 5.8 4.4 74 2.0 SSW 9 17 5 9 1021.2 - 0.0
24/12:50am 8.8 5.4 3.9 71 2.3 SSW 11 17 6 9 1021.3 - 0.0
24/12:40am 8.5 5.8 3.7 72 2.2 SSW 7 11 4 6 1021.3 - 0.0
24/12:20am 8.9 5.3 3.2 67 2.6 WSW 11 19 6 10 1021.6 - 0.0
24/12:10am 8.8 5.2 3.0 67 2.6 SW 11 15 6 8 1021.7 - 0.0
24/12:00am 8.9 5.4 3.4 68 2.5 S 11 17 6 9 1021.8 - 0.0
 
Date/Time
EST
Temp
°C
App
Temp
°C
Dew
Point
°C
Rel
Hum
%
Delta-T
°C
Wind Press
QNH
hPa
Press
MSL
hPa
Rain since
9am
mm
Dir  Spd
km/h
Gust
km/h
Spd
kts
Gust
kts
23/11:50pm 9.0 3.9 3.1 66 2.7 SSW 19 30 10 16 1022.0 - 0.0
23/11:40pm 8.9 4.1 2.5 64 2.9 S 17 20 9 11 1021.9 - 0.0
23/11:30pm 8.5 3.3 2.7 67 2.6 S 19 20 10 11 1022.0 - 0.0
23/11:20pm 8.6 3.3 2.8 67 2.6 SSW 20 22 11 12 1021.8 - 0.0
23/11:00pm 7.8 3.0 2.6 69 2.3 SW 17 28 9 15 1021.8 - 0.0
23/10:40pm 7.9 5.1 3.4 73 2.0 SW 7 9 4 5 1021.8 - 0.0
23/10:20pm 7.8 5.2 3.2 73 2.1 SSW 6 9 3 5 1022.1 - 0.0
23/10:10pm 7.6 5.4 3.4 75 1.9 S 4 4 2 2 1022.1 - 0.0
23/10:00pm 7.7 5.5 3.2 73 2.0 S 4 7 2 4 1022.1 - 0.0
23/09:50pm 7.5 4.7 3.3 75 1.9 S 7 11 4 6 1022.1 - 0.0
23/09:40pm 7.3 4.8 3.5 77 1.7 S 6 7 3 4 1022.2 - 0.0
23/09:30pm 7.2 5.0 3.4 77 1.7 SSW 4 4 2 2 1022.2 - 0.0
23/09:20pm 7.3 4.6 3.7 78 1.6 S 7 9 4 5 1022.2 - 0.0
23/09:00pm 7.9 5.4 3.7 75 1.9 SSW 6 9 3 5 1022.0 - 0.0
23/08:50pm 8.1 5.4 3.6 73 2.0 WSW 7 11 4 6 1022.0 - 0.0
23/08:40pm 8.0 6.3 4.0 76 1.8 SSW 2 4 1 2 1022.1 - 0.0
23/08:30pm 8.0 6.2 3.6 74 2.0 SSW 2 6 1 3 1022.1 - 0.0
23/08:20pm 7.9 6.5 3.7 75 1.9 CALM 0 4 0 2 1022.2 - 0.0
23/08:10pm 7.6 5.8 3.7 76 1.8 W 2 7 1 4 1022.1 - 0.0
23/08:00pm 7.5 5.8 3.8 77 1.7 SSE 2 6 1 3 1022.2 - 0.0
23/07:40pm 7.5 5.7 3.6 76 1.8 SSE 2 4 1 2 1022.0 - 0.0
23/07:30pm 7.5 5.7 3.7 77 1.7 S 2 6 1 3 1022.0 - 0.0
23/07:20pm 7.7 5.0 3.8 76 1.8 SSW 7 11 4 6 1022.0 - 0.0
23/07:10pm 7.8 5.1 3.9 76 1.8 SSW 7 9 4 5 1022.1 - 0.0
23/07:00pm 8.0 5.5 3.7 74 2.0 SW 6 9 3 5 1022.1 - 0.0
23/06:50pm 8.0 5.8 3.6 74 2.0 SSW 4 7 2 4 1022.0 - 0.0
23/06:40pm 7.9 5.8 4.0 76 1.8 S 4 7 2 4 1021.9 - 0.0
23/06:30pm 7.9 6.2 3.8 75 1.9 SW 2 6 1 3 1021.9 - 0.0
23/06:20pm 7.8 5.3 3.7 75 1.9 S 6 9 3 5 1021.9 - 0.0
23/06:10pm 7.8 5.8 4.2 78 1.7 S 4 6 2 3 1021.8 - 0.0
23/06:00pm 7.9 5.9 4.3 78 1.7 S 4 7 2 4 1021.7 - 0.0
23/05:50pm 8.1 5.6 4.6 78 1.6 WSW 7 9 4 5 1021.7 - 0.0
23/05:30pm 8.3 5.8 4.6 77 1.7 SW 7 11 4 6 1021.7 - 0.0
23/05:10pm 8.6 5.7 4.9 77 1.7 WSW 9 13 5 7 1021.7 - 0.0
23/05:00pm 8.7 5.8 4.8 76 1.8 WSW 9 13 5 7 1021.8 - 0.0
23/04:50pm 9.0 6.1 4.9 75 1.9 WSW 9 11 5 6 1021.7 - 0.0
23/04:30pm 9.3 5.7 4.8 73 2.1 WSW 13 17 7 9 1021.7 - 0.0
23/04:20pm 9.4 5.0 4.8 73 2.2 WSW 17 20 9 11 1021.8 - 0.0
23/04:10pm 9.6 5.2 4.9 72 2.2 WSW 17 22 9 12 1021.8 - 0.0
23/04:00pm 9.7 5.7 4.8 71 2.3 WSW 15 22 8 12 1021.7 - 0.0
23/03:40pm 10.3 6.4 5.2 70 2.4 WSW 15 20 8 11 1021.7 - 0.0
23/03:30pm 10.6 6.7 5.2 69 2.6 WSW 15 19 8 10 1021.8 - 0.0
23/03:10pm 10.6 7.1 5.4 70 2.5 WSW 13 17 7 9 1021.9 - 0.0
23/03:00pm 10.8 6.4 4.8 66 2.9 WSW 17 24 9 13 1021.9 - 0.0
23/02:50pm 11.0 6.7 5.4 68 2.7 WSW 17 19 9 10 1021.7 - 0.0
23/02:30pm 10.5 7.2 4.5 66 2.8 WSW 11 15 6 8 1022.0 - 0.0
23/01:50pm 10.8 8.0 5.0 67 2.8 W 9 11 5 6 1022.5 - 0.0
23/01:40pm 10.9 7.7 5.1 67 2.8 WSW 11 15 6 8 1022.7 - 0.0
23/01:30pm 11.3 8.9 5.4 67 2.9 W 7 13 4 7 1022.7 - 0.0
23/01:20pm 11.2 8.1 5.4 67 2.8 W 11 15 6 8 1023.0 - 0.0
23/01:10pm 11.2 8.0 5.3 67 2.9 W 11 17 6 9 1023.2 - 0.0
23/01:00pm 11.2 8.5 5.4 67 2.8 W 9 15 5 8 1023.4 - 0.0
23/12:50pm 11.1 9.3 5.6 69 2.7 WNW 4 6 2 3 1023.6 - 0.0
23/12:40pm 10.7 9.3 5.5 70 2.5 NNW 2 6 1 3 1023.8 - 0.0
23/12:30pm 10.1 7.9 5.5 73 2.2 N 6 9 3 5 1024.1 - 0.0
23/12:20pm 9.8 7.6 5.4 74 2.1 NNE 6 7 3 4 1024.3 - 0.0
23/12:00pm 9.4 7.0 5.4 76 1.9 NE 7 11 4 6 1024.7 - 0.0
23/11:50am 9.1 6.6 4.9 75 2.0 NE 7 9 4 5 1025.0 - 0.0
23/11:40am 9.2 6.4 5.2 76 1.9 NNE 9 11 5 6 1025.2 - 0.0

Latest Capital City Observations: Canberra | Sydney | Melbourne | Brisbane | Adelaide | Perth | Hobart | Darwin

Other formats

Comma delimited format used in spreadsheet applications
http://www.bom.gov.au/fwo/IDN60903/IDN60903.99762.axf

JavaScript Object Notation format (JSON) in row-major order
http://www.bom.gov.au/fwo/IDN60903/IDN60903.99762.json

Data quality

Most of these data are generated automatically and are frequently updated. Quality checks on data are not normally performed. It is possible for incorrect values to appear. Refer to information at About Latest Weather Observations and please check the disclaimer before using these data.